sensor_id;sensor_type;location;lat;lon;timestamp;temperature;humidity
10249;DHT22;5169;50.560;9.714;2023-07-30T00:01:25;17.30;99.90
10249;DHT22;5169;50.560;9.714;2023-07-30T00:03:50;17.30;99.90
10249;DHT22;5169;50.560;9.714;2023-07-30T00:06:16;17.30;99.90
10249;DHT22;5169;50.560;9.714;2023-07-30T00:08:42;17.30;99.90
10249;DHT22;5169;50.560;9.714;2023-07-30T00:11:07;17.20;99.90
10249;DHT22;5169;50.560;9.714;2023-07-30T00:13:33;17.20;99.90
10249;DHT22;5169;50.560;9.714;2023-07-30T00:15:58;17.20;99.90
10249;DHT22;5169;50.560;9.714;2023-07-30T00:18:27;17.10;99.90
10249;DHT22;5169;50.560;9.714;2023-07-30T00:20:54;17.20;99.90
10249;DHT22;5169;50.560;9.714;2023-07-30T00:23:22;17.10;99.90
10249;DHT22;5169;50.560;9.714;2023-07-30T00:25:54;17.10;99.90
10249;DHT22;5169;50.560;9.714;2023-07-30T00:28:19;17.00;99.90
10249;DHT22;5169;50.560;9.714;2023-07-30T00:30:47;17.10;99.90
10249;DHT22;5169;50.560;9.714;2023-07-30T00:33:15;17.00;99.90
10249;DHT22;5169;50.560;9.714;2023-07-30T00:35:43;17.10;99.90
10249;DHT22;5169;50.560;9.714;2023-07-30T00:38:18;17.10;99.90
10249;DHT22;5169;50.560;9.714;2023-07-30T00:40:44;17.20;99.90
10249;DHT22;5169;50.560;9.714;2023-07-30T00:43:09;17.10;99.90
10249;DHT22;5169;50.560;9.714;2023-07-30T00:45:42;17.10;99.90
10249;DHT22;5169;50.560;9.714;2023-07-30T00:48:10;17.00;99.90
10249;DHT22;5169;50.560;9.714;2023-07-30T00:50:42;17.00;99.90
10249;DHT22;5169;50.560;9.714;2023-07-30T00:53:09;16.90;99.90
10249;DHT22;5169;50.560;9.714;2023-07-30T00:55:36;16.80;99.90
10249;DHT22;5169;50.560;9.714;2023-07-30T00:58:05;16.90;99.90
10249;DHT22;5169;50.560;9.714;2023-07-30T01:00:31;16.80;99.90
10249;DHT22;5169;50.560;9.714;2023-07-30T01:02:57;16.80;99.90
10249;DHT22;5169;50.560;9.714;2023-07-30T01:05:23;16.90;99.90
10249;DHT22;5169;50.560;9.714;2023-07-30T01:07:48;16.80;99.90
10249;DHT22;5169;50.560;9.714;2023-07-30T01:10:20;16.70;99.90
10249;DHT22;5169;50.560;9.714;2023-07-30T01:12:47;16.60;99.90
10249;DHT22;5169;50.560;9.714;2023-07-30T01:15:15;16.70;99.90
10249;DHT22;5169;50.560;9.714;2023-07-30T01:17:44;16.60;99.90
10249;DHT22;5169;50.560;9.714;2023-07-30T01:20:11;16.60;99.90
10249;DHT22;5169;50.560;9.714;2023-07-30T01:22:37;16.60;99.90
10249;DHT22;5169;50.560;9.714;2023-07-30T01:25:03;16.70;99.90
10249;DHT22;5169;50.560;9.714;2023-07-30T01:27:39;16.70;99.90
10249;DHT22;5169;50.560;9.714;2023-07-30T01:30:25;16.80;99.90
10249;DHT22;5169;50.560;9.714;2023-07-30T01:32:52;16.70;99.90
10249;DHT22;5169;50.560;9.714;2023-07-30T01:35:21;16.70;99.90
10249;DHT22;5169;50.560;9.714;2023-07-30T01:37:50;16.60;99.90
10249;DHT22;5169;50.560;9.714;2023-07-30T01:40:26;16.60;99.90
10249;DHT22;5169;50.560;9.714;2023-07-30T01:42:51;16.60;99.90
10249;DHT22;5169;50.560;9.714;2023-07-30T01:45:24;16.60;99.90
10249;DHT22;5169;50.560;9.714;2023-07-30T01:47:50;16.60;99.90
10249;DHT22;5169;50.560;9.714;2023-07-30T01:50:20;16.70;99.90
10249;DHT22;5169;50.560;9.714;2023-07-30T01:52:46;16.60;99.90
10249;DHT22;5169;50.560;9.714;2023-07-30T01:55:11;16.70;99.90
10249;DHT22;5169;50.560;9.714;2023-07-30T01:57:37;16.70;99.90
10249;DHT22;5169;50.560;9.714;2023-07-30T02:00:03;16.80;99.90
10249;DHT22;5169;50.560;9.714;2023-07-30T02:02:29;16.70;99.90
10249;DHT22;5169;50.560;9.714;2023-07-30T02:04:57;16.80;99.90
10249;DHT22;5169;50.560;9.714;2023-07-30T02:07:22;16.80;99.90
10249;DHT22;5169;50.560;9.714;2023-07-30T02:09:48;16.70;99.90
10249;DHT22;5169;50.560;9.714;2023-07-30T02:12:14;16.80;99.90
10249;DHT22;5169;50.560;9.714;2023-07-30T02:14:40;16.80;99.90
10249;DHT22;5169;50.560;9.714;2023-07-30T02:17:05;16.70;99.90
10249;DHT22;5169;50.560;9.714;2023-07-30T02:19:34;16.70;99.90
10249;DHT22;5169;50.560;9.714;2023-07-30T02:21:59;16.70;99.90
10249;DHT22;5169;50.560;9.714;2023-07-30T02:24:25;16.80;99.90
10249;DHT22;5169;50.560;9.714;2023-07-30T02:26:51;16.70;99.90
10249;DHT22;5169;50.560;9.714;2023-07-30T02:29:16;16.60;99.90
10249;DHT22;5169;50.560;9.714;2023-07-30T02:31:42;16.60;99.90
10249;DHT22;5169;50.560;9.714;2023-07-30T02:34:10;16.70;99.90
10249;DHT22;5169;50.560;9.714;2023-07-30T02:36:41;16.60;99.90
10249;DHT22;5169;50.560;9.714;2023-07-30T02:39:06;16.60;99.90
10249;DHT22;5169;50.560;9.714;2023-07-30T02:41:35;16.50;99.90
10249;DHT22;5169;50.560;9.714;2023-07-30T02:44:00;16.60;99.90
10249;DHT22;5169;50.560;9.714;2023-07-30T02:46:26;16.70;99.90
10249;DHT22;5169;50.560;9.714;2023-07-30T02:48:54;16.80;99.90
10249;DHT22;5169;50.560;9.714;2023-07-30T02:51:26;16.70;99.90
10249;DHT22;5169;50.560;9.714;2023-07-30T02:54:03;16.60;99.90
10249;DHT22;5169;50.560;9.714;2023-07-30T02:56:31;16.70;99.90
10249;DHT22;5169;50.560;9.714;2023-07-30T02:59:04;16.60;99.90
10249;DHT22;5169;50.560;9.714;2023-07-30T03:01:30;16.60;99.90
10249;DHT22;5169;50.560;9.714;2023-07-30T03:03:56;16.60;99.90
10249;DHT22;5169;50.560;9.714;2023-07-30T03:06:25;16.60;99.90
10249;DHT22;5169;50.560;9.714;2023-07-30T03:08:51;16.60;99.90
10249;DHT22;5169;50.560;9.714;2023-07-30T03:11:16;16.60;99.90
10249;DHT22;5169;50.560;9.714;2023-07-30T03:13:42;16.60;99.90
10249;DHT22;5169;50.560;9.714;2023-07-30T03:16:07;16.50;99.90
10249;DHT22;5169;50.560;9.714;2023-07-30T03:18:35;16.50;99.90
10249;DHT22;5169;50.560;9.714;2023-07-30T03:21:01;16.40;99.90
10249;DHT22;5169;50.560;9.714;2023-07-30T03:23:32;16.40;99.90
10249;DHT22;5169;50.560;9.714;2023-07-30T03:26:00;16.50;99.90
10249;DHT22;5169;50.560;9.714;2023-07-30T03:28:26;16.40;99.90
10249;DHT22;5169;50.560;9.714;2023-07-30T03:30:51;16.50;99.90
10249;DHT22;5169;50.560;9.714;2023-07-30T03:33:21;16.40;99.90
10249;DHT22;5169;50.560;9.714;2023-07-30T03:35:47;16.30;99.90
10249;DHT22;5169;50.560;9.714;2023-07-30T03:38:12;16.30;99.90
10249;DHT22;5169;50.560;9.714;2023-07-30T03:40:40;16.40;99.90
10249;DHT22;5169;50.560;9.714;2023-07-30T03:43:09;16.60;99.90
10249;DHT22;5169;50.560;9.714;2023-07-30T03:45:35;16.50;99.90
10249;DHT22;5169;50.560;9.714;2023-07-30T03:48:00;16.60;99.90
10249;DHT22;5169;50.560;9.714;2023-07-30T03:50:26;16.70;99.90
10249;DHT22;5169;50.560;9.714;2023-07-30T03:52:51;16.70;99.90
10249;DHT22;5169;50.560;9.714;2023-07-30T03:55:19;16.80;99.90
10249;DHT22;5169;50.560;9.714;2023-07-30T03:57:51;16.90;99.90
10249;DHT22;5169;50.560;9.714;2023-07-30T04:00:16;16.80;99.90
10249;DHT22;5169;50.560;9.714;2023-07-30T04:02:42;16.70;99.90
10249;DHT22;5169;50.560;9.714;2023-07-30T04:05:08;16.60;99.90
10249;DHT22;5169;50.560;9.714;2023-07-30T04:07:37;16.60;99.90
10249;DHT22;5169;50.560;9.714;2023-07-30T04:10:02;16.50;99.90
10249;DHT22;5169;50.560;9.714;2023-07-30T04:12:30;16.60;99.90
10249;DHT22;5169;50.560;9.714;2023-07-30T04:14:56;16.60;99.90
10249;DHT22;5169;50.560;9.714;2023-07-30T04:17:26;16.70;99.90
10249;DHT22;5169;50.560;9.714;2023-07-30T04:19:52;16.80;99.90
10249;DHT22;5169;50.560;9.714;2023-07-30T04:22:20;16.80;99.90
10249;DHT22;5169;50.560;9.714;2023-07-30T04:24:46;17.00;99.90
10249;DHT22;5169;50.560;9.714;2023-07-30T04:27:14;17.00;99.90
10249;DHT22;5169;50.560;9.714;2023-07-30T04:29:42;17.00;99.90
10249;DHT22;5169;50.560;9.714;2023-07-30T04:32:07;17.00;99.90
10249;DHT22;5169;50.560;9.714;2023-07-30T04:34:33;17.00;99.90
10249;DHT22;5169;50.560;9.714;2023-07-30T04:36:59;17.10;99.90
10249;DHT22;5169;50.560;9.714;2023-07-30T04:39:27;17.20;99.90
10249;DHT22;5169;50.560;9.714;2023-07-30T04:41:55;17.20;99.90
10249;DHT22;5169;50.560;9.714;2023-07-30T04:44:21;17.20;99.90
10249;DHT22;5169;50.560;9.714;2023-07-30T04:46:47;17.20;99.90
10249;DHT22;5169;50.560;9.714;2023-07-30T04:49:15;17.30;99.90
10249;DHT22;5169;50.560;9.714;2023-07-30T04:51:41;17.30;99.90
10249;DHT22;5169;50.560;9.714;2023-07-30T04:54:08;17.30;99.90
10249;DHT22;5169;50.560;9.714;2023-07-30T04:56:34;17.40;99.90
10249;DHT22;5169;50.560;9.714;2023-07-30T04:59:06;17.30;99.90
10249;DHT22;5169;50.560;9.714;2023-07-30T05:01:31;17.20;99.90
10249;DHT22;5169;50.560;9.714;2023-07-30T05:03:59;17.20;99.90
10249;DHT22;5169;50.560;9.714;2023-07-30T05:06:29;17.20;99.90
10249;DHT22;5169;50.560;9.714;2023-07-30T05:08:54;17.30;99.90
10249;DHT22;5169;50.560;9.714;2023-07-30T05:11:20;17.20;99.90
10249;DHT22;5169;50.560;9.714;2023-07-30T05:13:45;17.10;99.90
10249;DHT22;5169;50.560;9.714;2023-07-30T05:16:11;17.10;99.90
10249;DHT22;5169;50.560;9.714;2023-07-30T05:18:40;17.10;99.90
10249;DHT22;5169;50.560;9.714;2023-07-30T05:21:08;17.00;99.90
10249;DHT22;5169;50.560;9.714;2023-07-30T05:23:33;17.10;99.90
10249;DHT22;5169;50.560;9.714;2023-07-30T05:26:04;17.00;99.90
10249;DHT22;5169;50.560;9.714;2023-07-30T05:28:30;17.10;99.90
10249;DHT22;5169;50.560;9.714;2023-07-30T05:30:55;17.20;99.90
10249;DHT22;5169;50.560;9.714;2023-07-30T05:33:21;17.30;99.90
10249;DHT22;5169;50.560;9.714;2023-07-30T05:35:46;17.50;99.90
10249;DHT22;5169;50.560;9.714;2023-07-30T05:38:14;17.70;99.90
10249;DHT22;5169;50.560;9.714;2023-07-30T05:40:44;18.10;99.90
10249;DHT22;5169;50.560;9.714;2023-07-30T05:43:10;18.50;99.90
10249;DHT22;5169;50.560;9.714;2023-07-30T05:45:35;18.80;99.90
10249;DHT22;5169;50.560;9.714;2023-07-30T05:48:01;19.30;99.90
10249;DHT22;5169;50.560;9.714;2023-07-30T05:50:26;19.70;99.90
10249;DHT22;5169;50.560;9.714;2023-07-30T05:52:59;20.30;99.90
10249;DHT22;5169;50.560;9.714;2023-07-30T05:55:25;20.90;99.90
10249;DHT22;5169;50.560;9.714;2023-07-30T05:57:50;21.60;99.90
10249;DHT22;5169;50.560;9.714;2023-07-30T06:00:24;22.20;99.90
10249;DHT22;5169;50.560;9.714;2023-07-30T06:02:50;22.40;99.90
10249;DHT22;5169;50.560;9.714;2023-07-30T06:05:18;22.40;99.90
10249;DHT22;5169;50.560;9.714;2023-07-30T06:07:49;22.30;99.90
10249;DHT22;5169;50.560;9.714;2023-07-30T06:10:17;22.20;99.90
10249;DHT22;5169;50.560;9.714;2023-07-30T06:12:49;22.10;99.90
10249;DHT22;5169;50.560;9.714;2023-07-30T06:15:14;21.70;99.90
10249;DHT22;5169;50.560;9.714;2023-07-30T06:17:40;21.30;99.90
10249;DHT22;5169;50.560;9.714;2023-07-30T06:20:06;21.40;99.90
10249;DHT22;5169;50.560;9.714;2023-07-30T06:22:32;21.30;99.90
10249;DHT22;5169;50.560;9.714;2023-07-30T06:24:57;21.40;99.90
10249;DHT22;5169;50.560;9.714;2023-07-30T06:27:23;21.30;99.90
10249;DHT22;5169;50.560;9.714;2023-07-30T06:29:49;21.30;99.90
10249;DHT22;5169;50.560;9.714;2023-07-30T06:32:14;21.20;99.90
10249;DHT22;5169;50.560;9.714;2023-07-30T06:34:40;21.00;99.90
10249;DHT22;5169;50.560;9.714;2023-07-30T06:37:06;20.90;99.90
10249;DHT22;5169;50.560;9.714;2023-07-30T06:39:31;21.00;99.90
10249;DHT22;5169;50.560;9.714;2023-07-30T06:41:57;21.10;99.90
10249;DHT22;5169;50.560;9.714;2023-07-30T06:44:22;21.10;99.90
10249;DHT22;5169;50.560;9.714;2023-07-30T06:46:49;20.90;99.90
10249;DHT22;5169;50.560;9.714;2023-07-30T06:49:15;21.00;99.90
10249;DHT22;5169;50.560;9.714;2023-07-30T06:51:40;21.20;99.90
10249;DHT22;5169;50.560;9.714;2023-07-30T06:54:08;21.20;99.90
10249;DHT22;5169;50.560;9.714;2023-07-30T06:56:34;21.30;99.90
10249;DHT22;5169;50.560;9.714;2023-07-30T06:59:02;21.20;99.90
10249;DHT22;5169;50.560;9.714;2023-07-30T07:01:28;21.00;99.90
10249;DHT22;5169;50.560;9.714;2023-07-30T07:03:54;21.00;99.90
10249;DHT22;5169;50.560;9.714;2023-07-30T07:06:22;21.00;99.90
10249;DHT22;5169;50.560;9.714;2023-07-30T07:08:48;21.00;99.90
10249;DHT22;5169;50.560;9.714;2023-07-30T07:11:13;20.90;99.90
10249;DHT22;5169;50.560;9.714;2023-07-30T07:13:39;21.00;99.90
10249;DHT22;5169;50.560;9.714;2023-07-30T07:16:05;21.10;99.90
10249;DHT22;5169;50.560;9.714;2023-07-30T07:18:30;21.10;99.90
10249;DHT22;5169;50.560;9.714;2023-07-30T07:20:58;21.20;99.90
10249;DHT22;5169;50.560;9.714;2023-07-30T07:23:24;21.10;99.90
10249;DHT22;5169;50.560;9.714;2023-07-30T07:25:49;21.10;99.90
10249;DHT22;5169;50.560;9.714;2023-07-30T07:28:15;21.10;99.90
10249;DHT22;5169;50.560;9.714;2023-07-30T07:30:42;21.10;99.90
10249;DHT22;5169;50.560;9.714;2023-07-30T07:33:08;21.50;99.90
10249;DHT22;5169;50.560;9.714;2023-07-30T07:35:40;21.40;99.90
10249;DHT22;5169;50.560;9.714;2023-07-30T07:38:06;21.10;99.90
10249;DHT22;5169;50.560;9.714;2023-07-30T07:40:40;21.00;99.90
10249;DHT22;5169;50.560;9.714;2023-07-30T07:43:09;21.10;99.90
10249;DHT22;5169;50.560;9.714;2023-07-30T07:45:38;21.30;99.90
10249;DHT22;5169;50.560;9.714;2023-07-30T07:48:03;21.50;99.90
10249;DHT22;5169;50.560;9.714;2023-07-30T07:50:29;21.60;99.90
10249;DHT22;5169;50.560;9.714;2023-07-30T07:52:54;21.70;99.90
10249;DHT22;5169;50.560;9.714;2023-07-30T07:55:22;21.70;99.90
10249;DHT22;5169;50.560;9.714;2023-07-30T07:57:50;21.90;99.90
10249;DHT22;5169;50.560;9.714;2023-07-30T08:00:17;22.00;99.90
10249;DHT22;5169;50.560;9.714;2023-07-30T08:02:42;22.20;99.90
10249;DHT22;5169;50.560;9.714;2023-07-30T08:05:08;22.10;99.90
10249;DHT22;5169;50.560;9.714;2023-07-30T08:07:34;21.90;99.90
10249;DHT22;5169;50.560;9.714;2023-07-30T08:09:59;21.80;99.90
10249;DHT22;5169;50.560;9.714;2023-07-30T08:12:27;21.90;99.90
10249;DHT22;5169;50.560;9.714;2023-07-30T08:14:55;22.10;99.90
10249;DHT22;5169;50.560;9.714;2023-07-30T08:17:21;22.00;99.90
10249;DHT22;5169;50.560;9.714;2023-07-30T08:19:49;22.10;99.90
10249;DHT22;5169;50.560;9.714;2023-07-30T08:22:15;22.20;99.90
10249;DHT22;5169;50.560;9.714;2023-07-30T08:24:41;22.10;99.90
10249;DHT22;5169;50.560;9.714;2023-07-30T08:27:06;22.20;99.90
10249;DHT22;5169;50.560;9.714;2023-07-30T08:29:32;22.20;99.90
10249;DHT22;5169;50.560;9.714;2023-07-30T08:31:57;21.90;99.90
10249;DHT22;5169;50.560;9.714;2023-07-30T08:34:25;21.80;99.90
10249;DHT22;5169;50.560;9.714;2023-07-30T08:36:53;21.80;99.90
10249;DHT22;5169;50.560;9.714;2023-07-30T08:39:19;21.90;99.90
10249;DHT22;5169;50.560;9.714;2023-07-30T08:41:45;22.00;99.90
10249;DHT22;5169;50.560;9.714;2023-07-30T08:44:13;22.20;99.90
10249;DHT22;5169;50.560;9.714;2023-07-30T08:46:41;22.20;99.90
10249;DHT22;5169;50.560;9.714;2023-07-30T08:49:09;22.10;99.90
10249;DHT22;5169;50.560;9.714;2023-07-30T08:51:36;22.00;99.90
10249;DHT22;5169;50.560;9.714;2023-07-30T08:54:03;22.00;99.90
10249;DHT22;5169;50.560;9.714;2023-07-30T08:56:30;21.90;99.90
10249;DHT22;5169;50.560;9.714;2023-07-30T08:58:59;21.80;99.90
10249;DHT22;5169;50.560;9.714;2023-07-30T09:01:30;21.70;99.90
10249;DHT22;5169;50.560;9.714;2023-07-30T09:03:59;21.70;99.90
10249;DHT22;5169;50.560;9.714;2023-07-30T09:06:26;21.60;99.90
10249;DHT22;5169;50.560;9.714;2023-07-30T09:08:51;21.50;99.90
10249;DHT22;5169;50.560;9.714;2023-07-30T09:11:17;21.30;99.90
10249;DHT22;5169;50.560;9.714;2023-07-30T09:13:43;21.10;99.90
10249;DHT22;5169;50.560;9.714;2023-07-30T09:16:13;20.90;99.90
10249;DHT22;5169;50.560;9.714;2023-07-30T09:18:43;20.60;99.90
10249;DHT22;5169;50.560;9.714;2023-07-30T09:21:15;20.50;99.90
10249;DHT22;5169;50.560;9.714;2023-07-30T09:23:45;20.50;99.90
10249;DHT22;5169;50.560;9.714;2023-07-30T09:26:11;20.60;99.90
10249;DHT22;5169;50.560;9.714;2023-07-30T09:28:37;20.70;99.90
10249;DHT22;5169;50.560;9.714;2023-07-30T09:31:04;20.50;99.90
10249;DHT22;5169;50.560;9.714;2023-07-30T09:33:31;20.40;99.90
10249;DHT22;5169;50.560;9.714;2023-07-30T09:35:57;20.50;99.90
10249;DHT22;5169;50.560;9.714;2023-07-30T09:38:25;20.60;99.90
10249;DHT22;5169;50.560;9.714;2023-07-30T09:41:00;20.80;99.90
10249;DHT22;5169;50.560;9.714;2023-07-30T09:43:29;21.00;99.90
10249;DHT22;5169;50.560;9.714;2023-07-30T09:46:01;21.20;99.90
10249;DHT22;5169;50.560;9.714;2023-07-30T09:48:32;21.20;99.90
10249;DHT22;5169;50.560;9.714;2023-07-30T09:51:00;21.40;99.90
10249;DHT22;5169;50.560;9.714;2023-07-30T09:53:30;21.60;99.90
10249;DHT22;5169;50.560;9.714;2023-07-30T09:56:03;21.90;99.90
10249;DHT22;5169;50.560;9.714;2023-07-30T09:58:31;22.00;99.90
10249;DHT22;5169;50.560;9.714;2023-07-30T10:01:02;22.10;99.90
10249;DHT22;5169;50.560;9.714;2023-07-30T10:03:32;22.10;99.90
10249;DHT22;5169;50.560;9.714;2023-07-30T10:06:05;22.30;99.90
10249;DHT22;5169;50.560;9.714;2023-07-30T10:08:36;22.50;99.90
10249;DHT22;5169;50.560;9.714;2023-07-30T10:11:07;22.70;99.90
10249;DHT22;5169;50.560;9.714;2023-07-30T10:13:34;22.80;99.90
10249;DHT22;5169;50.560;9.714;2023-07-30T10:16:00;22.90;99.90
10249;DHT22;5169;50.560;9.714;2023-07-30T10:18:39;23.20;99.90
10249;DHT22;5169;50.560;9.714;2023-07-30T10:21:10;23.30;99.90
10249;DHT22;5169;50.560;9.714;2023-07-30T10:23:45;23.00;99.90
10249;DHT22;5169;50.560;9.714;2023-07-30T10:26:14;22.90;99.90
10249;DHT22;5169;50.560;9.714;2023-07-30T10:28:42;22.80;99.90
10249;DHT22;5169;50.560;9.714;2023-07-30T10:31:09;22.80;99.90
10249;DHT22;5169;50.560;9.714;2023-07-30T10:33:58;23.00;99.90
10249;DHT22;5169;50.560;9.714;2023-07-30T10:36:41;23.00;99.90
10249;DHT22;5169;50.560;9.714;2023-07-30T10:39:12;23.10;99.90
10249;DHT22;5169;50.560;9.714;2023-07-30T10:41:42;23.30;99.90
10249;DHT22;5169;50.560;9.714;2023-07-30T10:44:27;23.30;99.90
10249;DHT22;5169;50.560;9.714;2023-07-30T10:46:57;23.40;99.90
10249;DHT22;5169;50.560;9.714;2023-07-30T10:49:25;23.30;99.90
10249;DHT22;5169;50.560;9.714;2023-07-30T10:51:55;23.30;99.90
10249;DHT22;5169;50.560;9.714;2023-07-30T10:54:22;23.30;99.90
10249;DHT22;5169;50.560;9.714;2023-07-30T10:56:48;23.20;99.90
10249;DHT22;5169;50.560;9.714;2023-07-30T10:59:17;22.70;99.90
10249;DHT22;5169;50.560;9.714;2023-07-30T11:01:45;22.50;99.90
10249;DHT22;5169;50.560;9.714;2023-07-30T11:04:13;22.30;99.90
10249;DHT22;5169;50.560;9.714;2023-07-30T11:06:38;22.10;99.90
10249;DHT22;5169;50.560;9.714;2023-07-30T11:09:05;22.00;99.90
10249;DHT22;5169;50.560;9.714;2023-07-30T11:11:33;21.80;99.90
10249;DHT22;5169;50.560;9.714;2023-07-30T11:14:00;21.60;99.90
10249;DHT22;5169;50.560;9.714;2023-07-30T11:16:25;21.40;99.90
10249;DHT22;5169;50.560;9.714;2023-07-30T11:18:52;21.20;99.90
10249;DHT22;5169;50.560;9.714;2023-07-30T11:21:18;21.10;99.90
10249;DHT22;5169;50.560;9.714;2023-07-30T11:23:46;20.90;99.90
10249;DHT22;5169;50.560;9.714;2023-07-30T11:26:17;20.80;99.90
10249;DHT22;5169;50.560;9.714;2023-07-30T11:28:43;20.60;99.90
10249;DHT22;5169;50.560;9.714;2023-07-30T11:31:14;20.40;99.90
10249;DHT22;5169;50.560;9.714;2023-07-30T11:33:42;20.00;99.90
10249;DHT22;5169;50.560;9.714;2023-07-30T11:36:11;19.70;99.90
10249;DHT22;5169;50.560;9.714;2023-07-30T11:38:39;18.90;99.90
10249;DHT22;5169;50.560;9.714;2023-07-30T11:41:09;18.10;99.90
10249;DHT22;5169;50.560;9.714;2023-07-30T11:43:41;17.60;99.90
10249;DHT22;5169;50.560;9.714;2023-07-30T11:46:11;17.20;99.90
10249;DHT22;5169;50.560;9.714;2023-07-30T11:48:42;17.00;99.90
10249;DHT22;5169;50.560;9.714;2023-07-30T11:51:31;16.90;99.90
10249;DHT22;5169;50.560;9.714;2023-07-30T11:54:01;16.80;99.90
10249;DHT22;5169;50.560;9.714;2023-07-30T11:56:33;16.40;99.90
10249;DHT22;5169;50.560;9.714;2023-07-30T11:59:01;16.40;99.90
10249;DHT22;5169;50.560;9.714;2023-07-30T12:01:30;16.40;99.90
10249;DHT22;5169;50.560;9.714;2023-07-30T12:03:59;16.50;99.90
10249;DHT22;5169;50.560;9.714;2023-07-30T12:09:19;16.60;99.90
10249;DHT22;5169;50.560;9.714;2023-07-30T12:11:48;16.70;99.90
10249;DHT22;5169;50.560;9.714;2023-07-30T12:14:15;16.70;99.90
10249;DHT22;5169;50.560;9.714;2023-07-30T12:16:47;16.90;99.90
10249;DHT22;5169;50.560;9.714;2023-07-30T12:19:13;17.10;99.90
10249;DHT22;5169;50.560;9.714;2023-07-30T12:21:44;17.20;99.90
10249;DHT22;5169;50.560;9.714;2023-07-30T12:24:10;17.40;99.90
10249;DHT22;5169;50.560;9.714;2023-07-30T12:26:35;17.50;99.90
10249;DHT22;5169;50.560;9.714;2023-07-30T12:29:01;17.70;99.90
10249;DHT22;5169;50.560;9.714;2023-07-30T12:31:35;18.30;99.90
10249;DHT22;5169;50.560;9.714;2023-07-30T12:34:02;18.80;99.90
10249;DHT22;5169;50.560;9.714;2023-07-30T12:36:28;19.40;99.90
10249;DHT22;5169;50.560;9.714;2023-07-30T12:38:57;19.60;99.90
10249;DHT22;5169;50.560;9.714;2023-07-30T12:41:24;19.90;99.90
10249;DHT22;5169;50.560;9.714;2023-07-30T12:43:57;20.00;99.90
10249;DHT22;5169;50.560;9.714;2023-07-30T12:46:23;20.00;99.90
10249;DHT22;5169;50.560;9.714;2023-07-30T12:48:58;19.80;99.90
10249;DHT22;5169;50.560;9.714;2023-07-30T12:51:35;19.30;99.90
10249;DHT22;5169;50.560;9.714;2023-07-30T12:54:00;19.00;99.90
10249;DHT22;5169;50.560;9.714;2023-07-30T12:56:35;18.90;99.90
10249;DHT22;5169;50.560;9.714;2023-07-30T12:59:00;18.80;99.90
10249;DHT22;5169;50.560;9.714;2023-07-30T13:01:26;18.60;99.90
10249;DHT22;5169;50.560;9.714;2023-07-30T13:03:57;18.50;99.90
10249;DHT22;5169;50.560;9.714;2023-07-30T13:06:25;18.40;99.90
10249;DHT22;5169;50.560;9.714;2023-07-30T13:08:53;18.60;99.90
10249;DHT22;5169;50.560;9.714;2023-07-30T13:11:22;18.80;99.90
10249;DHT22;5169;50.560;9.714;2023-07-30T13:13:47;19.20;99.90
10249;DHT22;5169;50.560;9.714;2023-07-30T13:16:13;19.20;99.90
10249;DHT22;5169;50.560;9.714;2023-07-30T13:18:41;19.40;99.90
10249;DHT22;5169;50.560;9.714;2023-07-30T13:21:12;19.70;99.90
10249;DHT22;5169;50.560;9.714;2023-07-30T13:23:48;19.90;99.90
10249;DHT22;5169;50.560;9.714;2023-07-30T13:26:16;19.50;99.90
10249;DHT22;5169;50.560;9.714;2023-07-30T13:28:42;19.10;99.90
10249;DHT22;5169;50.560;9.714;2023-07-30T13:31:11;18.80;99.90
10249;DHT22;5169;50.560;9.714;2023-07-30T13:33:39;18.50;99.90
10249;DHT22;5169;50.560;9.714;2023-07-30T13:36:07;18.30;99.90
10249;DHT22;5169;50.560;9.714;2023-07-30T13:38:38;18.10;99.90
10249;DHT22;5169;50.560;9.714;2023-07-30T13:41:07;17.90;99.90
10249;DHT22;5169;50.560;9.714;2023-07-30T13:43:35;17.80;99.90
10249;DHT22;5169;50.560;9.714;2023-07-30T13:46:03;17.80;99.90
10249;DHT22;5169;50.560;9.714;2023-07-30T13:48:31;17.60;99.90
10249;DHT22;5169;50.560;9.714;2023-07-30T13:51:04;17.60;99.90
10249;DHT22;5169;50.560;9.714;2023-07-30T13:53:31;17.60;99.90
10249;DHT22;5169;50.560;9.714;2023-07-30T13:56:00;17.70;99.90
10249;DHT22;5169;50.560;9.714;2023-07-30T13:58:26;17.70;99.90
10249;DHT22;5169;50.560;9.714;2023-07-30T14:00:56;17.80;99.90
10249;DHT22;5169;50.560;9.714;2023-07-30T14:03:22;17.90;99.90
10249;DHT22;5169;50.560;9.714;2023-07-30T14:05:48;18.30;99.90
10249;DHT22;5169;50.560;9.714;2023-07-30T14:08:13;18.80;99.90
10249;DHT22;5169;50.560;9.714;2023-07-30T14:10:39;19.20;99.90
10249;DHT22;5169;50.560;9.714;2023-07-30T14:13:13;19.40;99.90
10249;DHT22;5169;50.560;9.714;2023-07-30T14:15:39;19.30;99.90
10249;DHT22;5169;50.560;9.714;2023-07-30T14:18:12;19.40;99.90
10249;DHT22;5169;50.560;9.714;2023-07-30T14:20:38;19.80;99.90
10249;DHT22;5169;50.560;9.714;2023-07-30T14:23:04;20.00;99.90
10249;DHT22;5169;50.560;9.714;2023-07-30T14:25:33;20.10;99.90
10249;DHT22;5169;50.560;9.714;2023-07-30T14:27:58;19.80;99.90
10249;DHT22;5169;50.560;9.714;2023-07-30T14:30:24;19.60;99.90
10249;DHT22;5169;50.560;9.714;2023-07-30T14:32:49;19.40;99.90
10249;DHT22;5169;50.560;9.714;2023-07-30T14:35:22;19.20;99.90
10249;DHT22;5169;50.560;9.714;2023-07-30T14:37:59;19.10;99.90
10249;DHT22;5169;50.560;9.714;2023-07-30T14:40:24;19.20;99.90
10249;DHT22;5169;50.560;9.714;2023-07-30T14:42:59;19.20;99.90
10249;DHT22;5169;50.560;9.714;2023-07-30T14:45:25;19.30;99.90
10249;DHT22;5169;50.560;9.714;2023-07-30T14:47:51;19.20;99.90
10249;DHT22;5169;50.560;9.714;2023-07-30T14:50:16;19.40;99.90
10249;DHT22;5169;50.560;9.714;2023-07-30T14:52:48;19.50;99.90
10249;DHT22;5169;50.560;9.714;2023-07-30T14:55:14;19.70;99.90
10249;DHT22;5169;50.560;9.714;2023-07-30T14:57:46;19.70;99.90
10249;DHT22;5169;50.560;9.714;2023-07-30T15:00:12;19.60;99.90
10249;DHT22;5169;50.560;9.714;2023-07-30T15:02:39;19.60;99.90
10249;DHT22;5169;50.560;9.714;2023-07-30T15:05:09;19.50;99.90
10249;DHT22;5169;50.560;9.714;2023-07-30T15:07:35;19.60;99.90
10249;DHT22;5169;50.560;9.714;2023-07-30T15:10:01;19.60;99.90
10249;DHT22;5169;50.560;9.714;2023-07-30T15:12:26;19.70;99.90
10249;DHT22;5169;50.560;9.714;2023-07-30T15:14:52;19.70;99.90
10249;DHT22;5169;50.560;9.714;2023-07-30T15:17:17;19.60;99.90
10249;DHT22;5169;50.560;9.714;2023-07-30T15:19:46;19.70;99.90
10249;DHT22;5169;50.560;9.714;2023-07-30T15:22:13;19.80;99.90
10249;DHT22;5169;50.560;9.714;2023-07-30T15:24:39;19.80;99.90
10249;DHT22;5169;50.560;9.714;2023-07-30T15:27:04;19.70;99.90
10249;DHT22;5169;50.560;9.714;2023-07-30T15:29:30;19.60;99.90
10249;DHT22;5169;50.560;9.714;2023-07-30T15:31:59;19.70;99.90
10249;DHT22;5169;50.560;9.714;2023-07-30T15:34:26;19.70;99.90
10249;DHT22;5169;50.560;9.714;2023-07-30T15:36:54;19.60;99.90
10249;DHT22;5169;50.560;9.714;2023-07-30T15:39:24;19.70;99.90
10249;DHT22;5169;50.560;9.714;2023-07-30T15:41:50;19.70;99.90
10249;DHT22;5169;50.560;9.714;2023-07-30T15:44:16;19.60;99.90
10249;DHT22;5169;50.560;9.714;2023-07-30T15:46:47;19.80;99.90
10249;DHT22;5169;50.560;9.714;2023-07-30T15:49:12;19.90;99.90
10249;DHT22;5169;50.560;9.714;2023-07-30T15:51:38;19.90;99.90